createdAt,value
2022-12-31T00:04:03.675Z,5.963210702341137
2022-12-31T00:11:20.714Z,5.173913043478261
2022-12-31T00:17:41.207Z,4.638795986622074
2022-12-31T00:24:02.234Z,4.829431438127091
2022-12-31T00:30:21.556Z,5.090301003344481
2022-12-31T00:37:33.828Z,5.501672240802676
2022-12-31T00:43:53.842Z,5.404682274247492
2022-12-31T01:01:01.179Z,6.474916387959866
2022-12-31T01:12:58.557Z,5.053511705685619
2022-12-31T01:19:51.515Z,5.555183946488294
2022-12-31T01:26:11.289Z,5.207357859531773
2022-12-31T01:32:30.445Z,4.765886287625418
2022-12-31T01:38:49.266Z,4.829431438127091
2022-12-31T01:45:08.294Z,4.294314381270903
2022-12-31T01:51:27.588Z,4.4280936454849495
2022-12-31T02:02:22.642Z,3.5418060200668897
2022-12-31T02:08:42.565Z,3.391304347826087
2022-12-31T02:15:01.925Z,3.5986622073578594
2022-12-31T02:21:21.000Z,3.4381270903010033
2022-12-31T02:27:40.876Z,2.819397993311037
2022-12-31T02:34:00.967Z,2.1538461538461537
2022-12-31T02:40:20.724Z,1.5217391304347827
2022-12-31T02:46:40.394Z,1.5418060200668897
2022-12-31T02:52:59.345Z,1.745819397993311
2022-12-31T02:59:17.722Z,2.1103678929765888
2022-12-31T03:11:47.821Z,1.7391304347826086
2022-12-31T03:18:07.231Z,1.9464882943143813
2022-12-31T03:24:27.053Z,1.6789297658862876
2022-12-31T03:30:46.011Z,1.4381270903010033
2022-12-31T03:37:04.746Z,1.5183946488294315
2022-12-31T03:47:53.275Z,0.49498327759197325
2022-12-31T03:54:13.600Z,0.12709030100334448
2022-12-31T04:00:32.766Z,0.06688963210702341
2022-12-31T04:06:51.711Z,0.0
2022-12-31T04:13:10.431Z,0.016722408026755852
2022-12-31T04:25:19.595Z,0.0
2022-12-31T04:31:38.479Z,0.0
2022-12-31T04:47:57.625Z,0.0
2022-12-31T04:54:16.534Z,0.016722408026755852
2022-12-31T05:00:35.318Z,0.0
2022-12-31T05:13:07.713Z,0.0
2022-12-31T05:19:27.550Z,0.0
2022-12-31T05:31:21.845Z,0.06354515050167224
2022-12-31T05:40:42.208Z,0.0
2022-12-31T05:47:25.536Z,0.0
2022-12-31T05:53:45.092Z,0.0802675585284281
2022-12-31T06:00:04.589Z,0.21070234113712374
2022-12-31T06:12:40.571Z,0.0
2022-12-31T06:19:00.006Z,0.09698996655518395
2022-12-31T06:25:19.702Z,0.12709030100334448
2022-12-31T06:35:37.160Z,0.07023411371237458
2022-12-31T06:41:56.177Z,0.030100334448160536
2022-12-31T06:48:17.078Z,0.046822742474916385
2022-12-31T06:54:36.661Z,0.0
2022-12-31T07:00:56.176Z,0.010033444816053512
2022-12-31T07:07:16.688Z,0.07357859531772576
2022-12-31T07:18:36.619Z,0.39464882943143814
2022-12-31T07:24:55.855Z,0.47157190635451507
2022-12-31T07:43:32.561Z,0.9364548494983278
2022-12-31T07:49:52.146Z,1.959866220735786
2022-12-31T07:56:10.801Z,1.9264214046822743
2022-12-31T08:02:30.076Z,1.4046822742474916
2022-12-31T08:08:49.213Z,2.2040133779264215
2022-12-31T08:15:09.481Z,2.234113712374582
2022-12-31T08:21:34.851Z,5.237458193979933
2022-12-31T08:27:57.299Z,3.9732441471571907
2022-12-31T08:34:19.940Z,2.488294314381271
2022-12-31T08:43:51.306Z,1.9096989966555185
2022-12-31T08:50:13.121Z,1.4414715719063544
2022-12-31T08:56:34.923Z,1.8561872909698998
2022-12-31T09:04:58.186Z,1.491638795986622
2022-12-31T09:11:23.275Z,1.1973244147157192
2022-12-31T09:21:20.687Z,0.903010033444816
2022-12-31T09:27:43.181Z,0.4013377926421405
2022-12-31T09:34:08.291Z,0.05016722408026756
2022-12-31T09:46:12.192Z,0.06688963210702341
2022-12-31T09:52:33.808Z,0.22073578595317725
2022-12-31T09:58:55.152Z,0.033444816053511704
2022-12-31T10:05:17.426Z,0.026755852842809364
2022-12-31T10:11:39.284Z,0.09698996655518395
2022-12-31T10:18:01.626Z,0.07692307692307693
2022-12-31T10:24:23.949Z,0.0
2022-12-31T10:30:45.951Z,0.006688963210702341
2022-12-31T10:37:08.599Z,0.010033444816053512
2022-12-31T10:43:31.674Z,0.020066889632107024
2022-12-31T10:49:53.403Z,0.09364548494983277
2022-12-31T10:56:19.444Z,0.6020066889632107
2022-12-31T11:02:43.906Z,0.010033444816053512
2022-12-31T11:09:12.343Z,0.006688963210702341
2022-12-31T11:15:34.357Z,0.06020066889632107
2022-12-31T11:21:55.987Z,0.0
2022-12-31T11:28:20.865Z,0.0
2022-12-31T11:34:42.824Z,0.006688963210702341
2022-12-31T11:47:08.610Z,0.013377926421404682
2022-12-31T11:56:20.165Z,0.0
2022-12-31T12:02:42.291Z,0.0
2022-12-31T12:09:04.552Z,0.026755852842809364
2022-12-31T12:15:27.083Z,0.03678929765886288
2022-12-31T12:21:49.539Z,0.043478260869565216
2022-12-31T12:28:11.171Z,0.14715719063545152
2022-12-31T12:34:34.321Z,0.5852842809364549
2022-12-31T12:40:56.042Z,0.26421404682274247
2022-12-31T12:47:18.350Z,0.3110367892976589
2022-12-31T12:53:41.121Z,0.17391304347826086
2022-12-31T13:00:25.747Z,0.6354515050167224
2022-12-31T13:13:23.224Z,0.6622073578595318
2022-12-31T13:20:49.862Z,0.882943143812709
2022-12-31T13:27:12.518Z,0.2976588628762542
2022-12-31T13:33:35.667Z,0.26421404682274247
2022-12-31T13:39:57.144Z,0.451505016722408
2022-12-31T13:46:17.517Z,0.34448160535117056
2022-12-31T13:52:39.214Z,0.38461538461538464
2022-12-31T13:59:00.536Z,0.8695652173913043
2022-12-31T14:15:20.485Z,0.03678929765886288
2022-12-31T14:21:41.633Z,0.411371237458194
2022-12-31T14:28:06.028Z,0.16387959866220736
2022-12-31T14:37:11.801Z,1.1237458193979932
2022-12-31T14:43:32.120Z,2.491638795986622
2022-12-31T14:49:50.681Z,1.7324414715719063
2022-12-31T14:56:10.897Z,3.036789297658863
2022-12-31T15:02:30.754Z,13.264214046822742
2022-12-31T15:08:50.215Z,6.6923076923076925
2022-12-31T15:15:10.015Z,6.709030100334449
2022-12-31T15:22:47.698Z,5.073578595317726
2022-12-31T15:29:07.492Z,11.85953177257525
2022-12-31T15:35:26.725Z,4.668896321070235
2022-12-31T15:42:18.624Z,6.026755852842809
2022-12-31T15:49:00.467Z,4.949832775919733
2022-12-31T15:55:23.389Z,2.2274247491638794
2022-12-31T16:01:43.628Z,4.404682274247492
2022-12-31T16:08:03.543Z,2.698996655518395
2022-12-31T16:17:15.166Z,3.6755852842809364
2022-12-31T16:23:40.498Z,5.37123745819398
2022-12-31T16:30:01.869Z,3.531772575250836
2022-12-31T16:36:22.129Z,4.802675585284281
2022-12-31T16:42:44.518Z,3.5183946488294313
2022-12-31T16:50:07.253Z,4.0602006688963215
2022-12-31T16:56:50.914Z,3.5852842809364547
2022-12-31T17:05:59.509Z,3.080267558528428
2022-12-31T17:17:41.274Z,3.5384615384615383
2022-12-31T17:24:11.642Z,4.481605351170568
2022-12-31T17:38:30.520Z,12.224080267558529
2022-12-31T17:44:50.876Z,10.090301003344482
2022-12-31T17:51:10.122Z,7.953177257525083
2022-12-31T17:57:30.140Z,13.280936454849499
2022-12-31T18:03:49.548Z,9.678929765886288
2022-12-31T18:10:10.255Z,16.120401337792643
2022-12-31T18:16:29.703Z,15.384615384615385
2022-12-31T18:22:49.488Z,16.68896321070234
2022-12-31T18:40:41.397Z,22.809364548494983
2022-12-31T18:52:15.400Z,9.68227424749164
2022-12-31T18:59:17.668Z,10.862876254180602
2022-12-31T19:05:36.986Z,6.297658862876254
2022-12-31T19:11:56.603Z,6.739130434782608
2022-12-31T19:18:16.625Z,5.709030100334449
2022-12-31T19:24:36.320Z,5.344481605351171
2022-12-31T19:36:38.651Z,22.2809364548495
2022-12-31T19:45:06.053Z,11.117056856187292
2022-12-31T19:51:25.904Z,14.444816053511706
2022-12-31T19:57:45.043Z,20.076923076923077
2022-12-31T20:04:04.371Z,7.79933110367893
2022-12-31T20:14:10.095Z,5.301003344481606
2022-12-31T20:20:29.915Z,10.602006688963211
2022-12-31T20:26:49.006Z,9.25418060200669
2022-12-31T20:36:07.631Z,9.200668896321071
2022-12-31T20:42:27.346Z,8.45819397993311
2022-12-31T20:49:31.358Z,8.25752508361204
2022-12-31T20:56:12.271Z,10.993311036789297
2022-12-31T21:04:41.207Z,6.826086956521739
2022-12-31T21:12:35.845Z,5.254180602006689
2022-12-31T21:18:54.666Z,9.434782608695652
2022-12-31T21:25:14.260Z,11.40133779264214
2022-12-31T21:37:58.880Z,8.153846153846153
2022-12-31T21:50:21.949Z,15.304347826086957
2022-12-31T21:56:40.927Z,9.709030100334449
2022-12-31T22:07:52.507Z,7.8996655518394645
2022-12-31T22:14:11.227Z,4.749163879598663
2022-12-31T22:20:30.554Z,4.672240802675585
2022-12-31T22:30:11.576Z,6.785953177257525
2022-12-31T22:36:30.221Z,5.645484949832776
2022-12-31T22:42:49.248Z,9.956521739130435
2022-12-31T22:49:07.945Z,9.280936454849499
2022-12-31T22:55:27.084Z,31.953177257525084
2022-12-31T23:01:47.582Z,48.11705685618729
2022-12-31T23:14:54.103Z,117.07692307692308
2022-12-31T23:28:44.438Z,95.83946488294315
2022-12-31T23:35:09.573Z,47.37123745819398
2022-12-31T23:42:52.920Z,30.62541806020067
2022-12-31T23:53:31.997Z,24.107023411371237
2022-12-31T23:59:51.373Z,27.354515050167223
